ADDS METAR Data INFO
IDs: Format: Raw Decoded Include TAF

Data at: 0354 UTC 20 Feb 2018

KOJA 200335Z AUTO 00000KT 3SM BR CLR 06/06 A2971 RMK AO2 LTG DSNT NE AND E
KOJA 200315Z AUTO 03006KT 4SM BR CLR 05/05 A2971 RMK AO2
KOJA 200255Z AUTO 11006G11KT 5SM -VCTSRA SCT006 SCT039 SCT050 05/05 A2971 RMK AO2 LTG DSNT E THRU S P0001
KOJA 200235Z AUTO 11016KT 5SM -RA BKN006 BKN039 OVC075 04/03 A2967 RMK AO2 LTG DSNT SE AND S P0001
KOJA 200215Z AUTO 08008KT 10SM SCT006 SCT070 BKN110 05/03 A2972 RMK AO2
KOJA 200155Z AUTO 08005KT 10SM SCT007 BKN110 04/03 A2974 RMK AO2 LTG DSNT SW AND W
KOJA 200135Z AUTO 03005KT 10SM SCT007 SCT011 04/02 A2974 RMK AO2
KOJA 200115Z AUTO 08007KT 10SM CLR 04/02 A2973 RMK AO2
KOJA 200055Z AUTO 07006KT 10SM CLR 04/02 A2972 RMK AO2
KOJA 200035Z AUTO 05009KT 10SM CLR 05/02 A2973 RMK AO2
KOJA 200015Z AUTO 07009KT 10SM SCT036 SCT046 05/02 A2974 RMK AO2
KOJA 192355Z AUTO 06010KT 10SM CLR 05/02 A2974 RMK AO2
KOJA 192335Z AUTO 07010KT 10SM CLR 06/02 A2973 RMK AO2
KOJA 192315Z AUTO 06011KT 10SM CLR 06/02 A2972 RMK AO2
KOJA 192255Z AUTO 05010KT 10SM CLR 07/02 A2972 RMK AO2
KOJA 192235Z AUTO 05010KT 10SM CLR 08/03 A2972 RMK AO2
KOJA 192215Z AUTO 04011KT 10SM CLR 08/03 A2972 RMK AO2
KOJA 192155Z AUTO 05012KT 10SM CLR 08/03 A2973 RMK AO2
KOJA 192135Z AUTO 05010KT 10SM CLR 08/04 A2973 RMK AO2 LTG DSNT SE
KOJA 192115Z AUTO 02009KT 10SM CLR 08/04 A2973 RMK AO2 LTG DSNT E AND SE
KOJA 192055Z AUTO 04010KT 10SM CLR 08/05 A2974 RMK AO2
KOJA 192035Z AUTO 01010KT 10SM SCT008 08/04 A2974 RMK AO2
KOJA 192015Z AUTO 02010KT 10SM BKN008 07/05 A2974 RMK AO2
KOJA 191955Z AUTO 03011KT 10SM SCT008 SCT039 08/05 A2974 RMK AO2
KOJA 191935Z AUTO 01009KT 10SM SCT039 08/05 A2975 RMK AO2
KOJA 191915Z AUTO 36013KT 10SM SCT037 08/05 A2975 RMK AO2
KOJA 191855Z AUTO 01013KT 10SM SCT026 SCT100 SCT120 09/06 A2975 RMK AO2
KOJA 191835Z AUTO 01011KT 10SM SCT026 SCT100 SCT120 09/06 A2975 RMK AO2
KOJA 191815Z AUTO 35013G21KT 10SM SCT026 BKN100 11/07 A2975 RMK AO2
KOJA 191755Z AUTO 21012G16KT 10SM SCT110 20/16 A2973 RMK AO2
KOJA 191735Z AUTO 20013G22KT 10SM SCT019 SCT110 20/16 A2974 RMK AO2
KOJA 191715Z AUTO 21015G21KT 10SM SCT016 SCT120 20/16 A2973 RMK AO2
KOJA 191655Z AUTO 20012G20KT 10SM SCT016 SCT100 SCT120 19/16 A2974 RMK AO2
KOJA 191635Z AUTO 20012G19KT 10SM SCT016 SCT020 SCT025 18/16 A2974 RMK AO2
KOJA 191615Z AUTO 21011G17KT 10SM BKN016 OVC020 18/16 A2974 RMK AO2
KOJA 191555Z AUTO 21008G16KT 10SM BKN016 OVC021 17/16 A2975 RMK AO2
KOJA 191535Z AUTO 20012G22KT 10SM BKN016 BKN023 OVC080 18/16 A2974 RMK AO2 LTG DSNT NE
KOJA 191515Z AUTO 19011G18KT 10SM SCT016 BKN027 BKN080 17/16 A2973 RMK AO2 LTG DSNT NE
KOJA 191455Z AUTO 19011KT 10SM -TSRA SCT018 BKN027 OVC090 16/16 A2973 RMK AO2 LTG DSNT NW THRU E
KOJA 191435Z AUTO 19011G19KT 10SM SCT027 BKN090 16/15 A2971 RMK AO2
KOJA 191415Z AUTO 19012KT 10SM SCT100 16/15 A2970 RMK AO2 LTG DSNT NE
KOJA 191355Z AUTO 19013G16KT 10SM SCT100 16/15 A2969 RMK AO2
KOJA 191335Z AUTO 19011G15KT 10SM SCT015 BKN100 16/15 A2970 RMK AO2
KOJA 191315Z AUTO 19011G17KT 10SM SCT015 BKN110 16/16 A2969 RMK AO2
KOJA 191255Z AUTO 19011G20KT 10SM SCT015 BKN110 17/16 A2968 RMK AO2
KOJA 191235Z AUTO 20011G16KT 10SM SCT013 17/16 A2968 RMK AO2
KOJA 191215Z AUTO 20012G19KT 10SM BKN013 17/16 A2969 RMK AO2
KOJA 191155Z AUTO 19014G23KT 10SM BKN013 BKN018 BKN090 17/16 A2968 RMK AO2
KOJA 191135Z AUTO 20014G24KT 10SM OVC013 17/16 A2969 RMK AO2
KOJA 191115Z AUTO 19015G23KT 10SM OVC013 17/16 A2970 RMK AO2
KOJA 191055Z AUTO 19014G18KT 10SM BKN013 17/16 A2969 RMK AO2
KOJA 191035Z AUTO 19015G22KT 10SM SCT013 SCT110 17/16 A2969 RMK AO2
KOJA 191015Z AUTO 20014G20KT 10SM SCT110 16/16 A2969 RMK AO2
KOJA 190955Z AUTO 20013G21KT 10SM SCT110 17/16 A2969 RMK AO2
KOJA 190935Z AUTO 20013G20KT 10SM CLR 16/15 A2969 RMK AO2
KOJA 190915Z AUTO 19014G18KT 10SM CLR 17/15 A2969 RMK AO2
KOJA 190855Z AUTO 19013G19KT 10SM CLR 17/15 A2969 RMK AO2
KOJA 190835Z AUTO 19015G24KT 10SM CLR 17/15 A2969 RMK AO2
KOJA 190815Z AUTO 20015G21KT 10SM CLR 17/15 A2970 RMK AO2
KOJA 190755Z AUTO 19017G21KT 10SM CLR 17/15 A2969 RMK AO2
KOJA 190735Z AUTO 19012KT 10SM CLR 16/15 A2969 RMK AO2
KOJA 190715Z AUTO 18011KT 10SM CLR 15/15 A2969 RMK AO2
KOJA 190655Z AUTO 19010G14KT 10SM CLR 16/15 A2970 RMK AO2
KOJA 190635Z AUTO 18012G20KT 10SM CLR 16/15 A2969 RMK AO2
KOJA 190615Z AUTO 18014G19KT 10SM CLR 16/15 A2969 RMK AO2
KOJA 190555Z AUTO 19015G21KT 10SM SCT018 SCT022 16/15 A2969 RMK AO2
KOJA 190535Z AUTO 19015G20KT 10SM CLR 16/15 A2970 RMK AO2
KOJA 190515Z AUTO 19015G21KT 10SM CLR 16/15 A2970 RMK AO2
KOJA 190455Z AUTO 18016G23KT 10SM CLR 15/15 A2969 RMK AO2
KOJA 190435Z AUTO 18015G22KT 7SM SCT007 15/14 A2970 RMK AO2
KOJA 190415Z AUTO 19018G28KT 7SM BKN007 SCT012 15/14 A2970 RMK AO2
KOJA 190355Z AUTO 18023G28KT 7SM BKN007 OVC012 15/14 A2970 RMK AO2
KOJA 190335Z AUTO 18022G29KT 10SM OVC009 15/13 A2969 RMK AO2
KOJA 190315Z AUTO 18023G28KT 10SM BKN007 14/13 A2968 RMK AO2
KOJA 190255Z AUTO 18023G30KT 7SM BKN005 14/13 A2968 RMK AO2
KOJA 190235Z AUTO 17020G28KT 7SM OVC005 13/13 A2969 RMK AO2
KOJA 190215Z AUTO 17019G26KT 7SM OVC005 13/12 A2969 RMK AO2
KOJA 190155Z AUTO 16019G24KT 7SM OVC005 13/12 A2970 RMK AO2
KOJA 190135Z AUTO 16015G20KT 7SM OVC005 12/12 A2970 RMK AO2
KOJA 190115Z AUTO 16011G17KT 7SM BKN007 12/11 A2971 RMK AO2
KOJA 190055Z AUTO 16011G18KT 10SM CLR 12/10 A2971 RMK AO2
KOJA 190035Z AUTO 16012KT 10SM CLR 13/11 A2971 RMK AO2
KOJA 190015Z AUTO 17014G22KT 10SM CLR 13/11 A2971 RMK AO2
KOJA 182355Z AUTO 17014G20KT 10SM CLR 14/11 A2971 RMK AO2
KOJA 182335Z AUTO 18019G25KT 10SM CLR 15/10 A2972 RMK AO2
KOJA 182315Z AUTO 17015G25KT 10SM CLR 16/10 A2973 RMK AO2
KOJA 182255Z AUTO 18020G26KT 10SM CLR 16/10 A2973 RMK AO2
KOJA 182235Z AUTO 18016G27KT 10SM CLR 17/10 A2973 RMK AO2
KOJA 182215Z AUTO 19019G25KT 10SM CLR 17/10 A2973 RMK AO2
KOJA 182155Z AUTO 18021G27KT 10SM CLR 17/10 A2974 RMK AO2
KOJA 182135Z AUTO 19017G23KT 10SM CLR 17/10 A2975 RMK AO2
KOJA 182115Z AUTO 18016G24KT 10SM SCT027 16/10 A2975 RMK AO2
KOJA 182055Z AUTO 19019G24KT 10SM SCT024 BKN030 16/10 A2977 RMK AO2
KOJA 182035Z AUTO 19016G22KT 10SM OVC022 15/10 A2979 RMK AO2
KOJA 182015Z AUTO 19015G21KT 10SM OVC020 15/09 A2980 RMK AO2
KOJA 181955Z AUTO 18015G20KT 10SM OVC020 14/08 A2982 RMK AO2
KOJA 181935Z AUTO 19017G20KT 10SM OVC020 14/08 A2983 RMK AO2
KOJA 181915Z AUTO 18012KT 10SM OVC022 13/08 A2985 RMK AO2
KOJA 181855Z AUTO 19013G19KT 10SM OVC024 12/07 A2988 RMK AO2
KOJA 181835Z AUTO 17015G19KT 10SM SCT018 BKN028 OVC033 12/07 A2990 RMK AO2
KOJA 181815Z AUTO 18011G20KT 10SM BKN016 OVC037 11/07 A2992 RMK AO2
KOJA 181755Z AUTO 19013G23KT 10SM SCT016 OVC037 11/07 A2994 RMK AO2
KOJA 181735Z AUTO 18018G24KT 10SM BKN035 11/07 A2994 RMK AO2
KOJA 181715Z AUTO 19017G24KT 10SM SCT015 BKN035 11/07 A2996 RMK AO2
KOJA 181655Z AUTO 18017G24KT 7SM SCT009 BKN015 OVC035 10/07 A2997 RMK AO2
KOJA 181635Z AUTO 17014G18KT 7SM BKN009 BKN013 08/07 A2998 RMK AO2
KOJA 181615Z AUTO 18013G18KT 7SM SCT009 08/06 A2999 RMK AO2
KOJA 181555Z AUTO 16015G20KT 10SM CLR 07/06 A2999 RMK AO2